Time,TemperatureF,DewpointF,PressureIn,WindDirection,WindDirectionDegrees,WindSpeedMPH,WindSpeedGustMPH,Humidity,HourlyPrecipIn,Conditions,Clouds,dailyrainin,SolarRadiationWatts/m^2,SoftwareType,DateUTC
2013-08-26 00:10:00,61.1,58.1,23.22,WSW,238,0.0,0.0,90,0.00,,,0.00,0,Wunderground v.1.15,2013-08-26 04:10:00,
2013-08-26 00:20:00,61.1,58.1,23.22,WSW,239,0.0,0.0,90,0.00,,,0.00,0,Wunderground v.1.15,2013-08-26 04:20:00,
2013-08-26 00:30:00,61.1,58.5,23.22,SW,225,0.0,0.0,91,0.08,,,0.02,0,Wunderground v.1.15,2013-08-26 04:30:00,
2013-08-26 00:40:00,60.9,58.3,23.22,SW,223,0.0,0.0,91,0.05,,,0.02,0,Wunderground v.1.15,2013-08-26 04:40:00,
2013-08-26 00:50:00,60.9,58.6,23.21,SSW,208,0.0,0.0,92,0.05,,,0.02,0,Wunderground v.1.15,2013-08-26 04:50:00,
2013-08-26 01:10:00,61.5,59.2,23.21,SW,228,0.0,0.0,92,0.00,,,0.03,0,Wunderground v.1.15,2013-08-26 05:10:00,
2013-08-26 01:20:00,61.7,59.7,23.21,SSW,203,0.0,0.0,93,0.00,,,0.03,0,Wunderground v.1.15,2013-08-26 05:20:00,
2013-08-26 01:40:00,62.2,59.8,23.21,SSW,213,0.0,0.0,92,0.00,,,0.03,0,Wunderground v.1.15,2013-08-26 05:40:00,
2013-08-26 01:50:00,62.2,59.8,23.21,SSW,211,0.0,0.0,92,0.00,,,0.03,0,Wunderground v.1.15,2013-08-26 05:50:00,
2013-08-26 02:10:00,62.2,59.8,23.21,SSW,210,0.0,0.0,92,0.00,,,0.03,0,Wunderground v.1.15,2013-08-26 06:10:00,
2013-08-26 02:20:00,62.3,59.9,23.20,North,9,0.0,0.0,92,0.00,,,0.03,0,Wunderground v.1.15,2013-08-26 06:20:00,
2013-08-26 02:40:00,62.3,59.9,23.20,SW,236,0.0,0.0,92,0.00,,,0.03,0,Wunderground v.1.15,2013-08-26 06:40:00,
2013-08-26 02:50:00,62.2,59.8,23.20,WSW,244,0.0,0.0,92,0.00,,,0.03,0,Wunderground v.1.15,2013-08-26 06:50:00,
2013-08-26 03:00:00,62.2,59.8,23.20,SSW,204,0.0,0.0,92,0.00,,,0.03,0,Wunderground v.1.15,2013-08-26 07:00:00,
2013-08-26 03:10:00,62.2,59.8,23.20,SW,218,0.0,0.0,92,0.00,,,0.03,0,Wunderground v.1.15,2013-08-26 07:10:00,
2013-08-26 03:20:00,62.2,59.8,23.20,SSW,207,0.0,0.0,92,0.00,,,0.03,0,Wunderground v.1.15,2013-08-26 07:20:00,
2013-08-26 03:40:00,62.3,59.9,23.20,SSW,207,0.0,0.0,92,0.00,,,0.03,0,Wunderground v.1.15,2013-08-26 07:40:00,
2013-08-26 03:50:00,62.3,59.9,23.20,SSW,210,0.0,0.0,92,0.00,,,0.03,0,Wunderground v.1.15,2013-08-26 07:50:00,
2013-08-26 04:00:00,62.3,59.9,23.20,SSW,211,0.0,0.0,92,0.00,,,0.03,0,Wunderground v.1.15,2013-08-26 08:00:00,
2013-08-26 04:10:00,62.5,60.1,23.20,SSW,211,0.0,0.0,92,0.00,,,0.03,0,Wunderground v.1.15,2013-08-26 08:10:00,
2013-08-26 04:20:00,62.5,60.4,23.20,SSW,211,0.0,0.0,93,0.00,,,0.03,0,Wunderground v.1.15,2013-08-26 08:20:00,
2013-08-26 04:31:00,62.6,60.5,23.20,SSW,211,0.0,0.0,93,0.00,,,0.03,0,Wunderground v.1.15,2013-08-26 08:31:00,
2013-08-26 04:40:00,62.8,60.7,23.20,SSW,211,0.0,0.0,93,0.00,,,0.04,0,Wunderground v.1.15,2013-08-26 08:40:00,
2013-08-26 04:50:00,63.0,60.9,23.19,SW,215,0.0,0.0,93,0.00,,,0.04,0,Wunderground v.1.15,2013-08-26 08:50:00,
2013-08-26 05:10:00,63.1,61.0,23.19,SW,215,0.0,0.0,93,0.00,,,0.04,0,Wunderground v.1.15,2013-08-26 09:10:00,
2013-08-26 05:20:00,63.1,61.0,23.19,SW,220,0.0,0.0,93,0.00,,,0.04,0,Wunderground v.1.15,2013-08-26 09:20:00,
2013-08-26 05:40:00,63.1,61.0,23.19,SW,230,0.0,0.0,93,0.00,,,0.04,0,Wunderground v.1.15,2013-08-26 09:40:00,
2013-08-26 05:50:00,63.1,61.0,23.19,SW,234,0.0,0.0,93,0.00,,,0.04,0,Wunderground v.1.15,2013-08-26 09:50:00,
2013-08-26 06:10:00,63.3,61.2,23.19,SW,235,0.0,0.0,93,0.00,,,0.04,0,Wunderground v.1.15,2013-08-26 10:10:00,
2013-08-26 06:20:00,63.3,61.2,23.19,WSW,243,0.0,0.0,93,0.00,,,0.04,7,Wunderground v.1.15,2013-08-26 10:20:00,
2013-08-26 06:40:00,63.3,61.2,23.19,WSW,253,0.0,0.0,93,0.00,,,0.04,23,Wunderground v.1.15,2013-08-26 10:40:00,
2013-08-26 06:50:00,63.4,61.3,23.19,WSW,253,0.0,0.0,93,0.00,,,0.04,30,Wunderground v.1.15,2013-08-26 10:50:00,
2013-08-26 07:10:00,63.8,61.7,23.19,WSW,253,0.0,0.0,93,0.00,,,0.04,28,Wunderground v.1.15,2013-08-26 11:10:00,
2013-08-26 07:20:00,63.9,61.8,23.19,WSW,253,0.0,0.0,93,0.00,,,0.04,25,Wunderground v.1.15,2013-08-26 11:20:00,
2013-08-26 07:40:00,64.2,61.8,23.19,WSW,240,0.0,0.0,92,0.00,,,0.04,30,Wunderground v.1.15,2013-08-26 11:40:00,
2013-08-26 07:50:00,64.4,62.0,23.19,WSW,239,0.0,0.0,92,0.00,,,0.04,47,Wunderground v.1.15,2013-08-26 11:50:00,
2013-08-26 08:10:00,64.7,62.0,23.19,West,275,0.0,0.0,91,0.00,,,0.04,56,Wunderground v.1.15,2013-08-26 12:10:00,
2013-08-26 08:20:00,64.9,62.2,23.19,WSW,241,0.0,0.0,91,0.00,,,0.04,58,Wunderground v.1.15,2013-08-26 12:20:00,
2013-08-26 08:40:00,65.4,62.7,23.19,West,275,0.0,0.0,91,0.00,,,0.04,95,Wunderground v.1.15,2013-08-26 12:40:00,
2013-08-26 08:50:00,65.5,62.5,23.19,WNW,288,0.0,0.0,90,0.00,,,0.04,105,Wunderground v.1.15,2013-08-26 12:50:00,
2013-08-26 09:10:00,66.0,63.0,23.19,WSW,243,0.0,0.0,90,0.00,,,0.04,120,Wunderground v.1.15,2013-08-26 13:10:00,
2013-08-26 09:20:00,66.3,63.0,23.19,WSW,245,0.0,0.0,89,0.00,,,0.04,105,Wunderground v.1.15,2013-08-26 13:20:00,
2013-08-26 09:40:00,66.7,63.0,23.19,NNW,328,0.0,0.0,88,0.00,,,0.04,121,Wunderground v.1.15,2013-08-26 13:40:00,
2013-08-26 09:50:00,66.8,63.1,23.19,WNW,296,0.0,0.0,88,0.00,,,0.04,153,Wunderground v.1.15,2013-08-26 13:50:00,
2013-08-26 10:10:00,67.5,63.5,23.19,West,267,0.0,0.0,87,0.00,,,0.04,204,Wunderground v.1.15,2013-08-26 14:10:00,
2013-08-26 10:20:00,68.0,63.7,23.19,SW,232,0.0,0.0,86,0.00,,,0.04,253,Wunderground v.1.15,2013-08-26 14:20:00,
2013-08-26 10:40:00,68.8,63.4,23.19,WSW,238,0.0,0.0,83,0.00,,,0.04,186,Wunderground v.1.15,2013-08-26 14:40:00,
2013-08-26 10:50:00,68.8,63.8,23.19,South,179,0.0,0.0,84,0.00,,,0.04,213,Wunderground v.1.15,2013-08-26 14:50:00,
2013-08-26 11:10:00,69.2,63.8,23.19,WSW,253,0.0,0.0,83,0.00,,,0.04,323,Wunderground v.1.15,2013-08-26 15:10:00,
2013-08-26 11:20:00,69.5,63.8,23.19,WSW,254,0.0,0.0,82,0.00,,,0.04,297,Wunderground v.1.15,2013-08-26 15:20:00,
2013-08-26 11:40:00,70.8,63.6,23.19,West,273,0.0,0.0,78,0.00,,,0.04,357,Wunderground v.1.15,2013-08-26 15:40:00,
2013-08-26 11:50:00,72.0,64.0,23.19,West,279,0.0,0.0,76,0.00,,,0.04,719,Wunderground v.1.15,2013-08-26 15:50:00,
2013-08-26 12:10:00,73.8,64.2,23.19,West,277,0.0,0.0,72,0.00,,,0.04,791,Wunderground v.1.15,2013-08-26 16:10:00,
2013-08-26 12:20:00,74.1,64.5,23.19,WSW,241,0.0,0.0,72,0.00,,,0.04,501,Wunderground v.1.15,2013-08-26 16:20:00,
2013-08-26 12:30:00,74.1,64.1,23.19,West,278,0.0,0.0,71,0.00,,,0.04,622,Wunderground v.1.15,2013-08-26 16:30:00,
2013-08-26 12:40:00,73.9,64.3,23.18,NNW,336,0.0,0.0,72,0.00,,,0.04,378,Wunderground v.1.15,2013-08-26 16:40:00,
2013-08-26 12:50:00,74.1,64.5,23.18,WSW,256,0.0,0.0,72,0.00,,,0.04,504,Wunderground v.1.15,2013-08-26 16:50:00,
2013-08-26 13:10:00,76.0,64.7,23.18,SW,229,0.0,0.0,68,0.00,,,0.04,807,Wunderground v.1.15,2013-08-26 17:10:00,
2013-08-26 13:20:00,75.9,65.0,23.18,WSW,242,0.0,0.0,69,0.00,,,0.04,443,Wunderground v.1.15,2013-08-26 17:20:00,
2013-08-26 13:40:00,76.0,65.1,23.18,NNW,328,0.0,0.0,69,0.00,,,0.04,353,Wunderground v.1.15,2013-08-26 17:40:00,
2013-08-26 13:50:00,75.7,64.8,23.18,NNW,334,0.0,0.0,69,0.00,,,0.04,237,Wunderground v.1.15,2013-08-26 17:50:00,
2013-08-26 14:10:00,75.0,65.4,23.18,NW,316,0.0,0.0,72,0.00,,,0.04,211,Wunderground v.1.15,2013-08-26 18:10:00,
2013-08-26 14:20:00,75.0,65.4,23.18,West,273,0.0,0.0,72,0.00,,,0.04,181,Wunderground v.1.15,2013-08-26 18:20:00,
2013-08-26 14:40:00,75.3,64.4,23.18,NW,321,0.0,0.0,69,0.00,,,0.04,336,Wunderground v.1.15,2013-08-26 18:40:00,
2013-08-26 14:50:00,75.7,65.2,23.18,NW,313,0.0,0.0,70,0.00,,,0.04,357,Wunderground v.1.15,2013-08-26 18:50:00,
2013-08-26 15:10:00,76.4,65.1,23.18,WNW,302,0.0,0.0,68,0.00,,,0.04,376,Wunderground v.1.15,2013-08-26 19:10:00,
2013-08-26 15:20:00,76.4,64.2,23.17,WNW,287,0.0,0.0,66,0.00,,,0.04,376,Wunderground v.1.15,2013-08-26 19:20:00,
2013-08-26 15:31:00,76.7,64.5,23.17,North,351,0.0,0.0,66,0.00,,,0.04,325,Wunderground v.1.15,2013-08-26 19:31:00,
2013-08-26 15:40:00,76.7,63.6,23.17,NW,304,0.0,0.0,64,0.00,,,0.04,309,Wunderground v.1.15,2013-08-26 19:40:00,
2013-08-26 15:50:00,76.6,64.4,23.17,WNW,300,0.0,0.0,66,0.00,,,0.04,313,Wunderground v.1.15,2013-08-26 19:50:00,
2013-08-26 16:00:00,76.7,64.5,23.17,NW,304,0.0,0.0,66,0.00,,,0.04,292,Wunderground v.1.15,2013-08-26 20:00:00,
2013-08-26 16:10:00,76.7,64.9,23.17,WNW,295,0.0,0.0,67,0.00,,,0.04,276,Wunderground v.1.15,2013-08-26 20:10:00,
2013-08-26 16:20:00,76.9,64.7,23.17,WNW,298,0.0,0.0,66,0.00,,,0.04,269,Wunderground v.1.15,2013-08-26 20:20:00,
2013-08-26 16:40:00,76.6,64.4,23.17,NW,306,0.0,0.0,66,0.00,,,0.04,220,Wunderground v.1.15,2013-08-26 20:40:00,
2013-08-26 16:50:00,76.4,64.6,23.17,NW,306,0.0,0.0,67,0.00,,,0.04,206,Wunderground v.1.15,2013-08-26 20:50:00,
2013-08-26 17:10:00,76.4,65.5,23.17,NW,306,0.0,0.0,69,0.00,,,0.04,195,Wunderground v.1.15,2013-08-26 21:10:00,
2013-08-26 17:20:00,76.0,64.2,23.17,NW,306,0.0,0.0,67,0.00,,,0.04,172,Wunderground v.1.15,2013-08-26 21:20:00,
2013-08-26 17:30:00,75.9,64.6,23.17,NW,306,0.0,0.0,68,0.00,,,0.04,148,Wunderground v.1.15,2013-08-26 21:30:00,
2013-08-26 17:40:00,75.9,65.0,23.17,NW,306,0.0,0.0,69,0.00,,,0.04,130,Wunderground v.1.15,2013-08-26 21:40:00,
2013-08-26 17:50:00,75.5,64.6,23.17,NW,307,0.0,0.0,69,0.00,,,0.04,114,Wunderground v.1.15,2013-08-26 21:50:00,
2013-08-26 18:00:00,75.3,64.4,23.17,NW,307,0.0,0.0,69,0.00,,,0.04,81,Wunderground v.1.15,2013-08-26 22:00:00,
2013-08-26 18:10:00,75.3,64.8,23.17,NW,307,0.0,0.0,70,0.00,,,0.04,76,Wunderground v.1.15,2013-08-26 22:10:00,
2013-08-26 18:20:00,75.0,65.0,23.17,NW,307,0.0,0.0,71,0.00,,,0.04,83,Wunderground v.1.15,2013-08-26 22:20:00,
2013-08-26 18:31:00,74.8,64.8,23.17,NW,307,0.0,0.0,71,0.00,,,0.04,77,Wunderground v.1.15,2013-08-26 22:31:00,
2013-08-26 18:40:00,74.6,65.0,23.17,NW,307,0.0,0.0,72,0.00,,,0.04,58,Wunderground v.1.15,2013-08-26 22:40:00,
2013-08-26 18:50:00,74.5,65.3,23.17,WNW,294,0.0,0.0,73,0.00,,,0.04,30,Wunderground v.1.15,2013-08-26 22:50:00,
2013-08-26 19:10:00,74.1,65.7,23.17,WNW,294,0.0,0.0,75,0.00,,,0.04,12,Wunderground v.1.15,2013-08-26 23:10:00,
2013-08-26 19:20:00,73.9,66.2,23.17,WNW,294,0.0,0.0,77,0.00,,,0.04,14,Wunderground v.1.15,2013-08-26 23:20:00,
2013-08-26 19:40:00,73.2,66.3,23.17,WNW,294,0.0,0.0,79,0.00,,,0.04,0,Wunderground v.1.15,2013-08-26 23:40:00,
2013-08-26 19:50:00,73.2,66.3,23.17,WNW,294,0.0,0.0,79,0.00,,,0.04,0,Wunderground v.1.15,2013-08-26 23:50:00,
2013-08-26 20:10:00,72.4,66.2,23.17,WNW,294,0.0,0.0,81,0.00,,,0.04,0,Wunderground v.1.15,2013-08-27 00:10:00,
2013-08-26 20:20:00,72.6,66.1,23.17,WNW,294,0.0,0.0,80,0.00,,,0.04,0,Wunderground v.1.15,2013-08-27 00:20:00,
2013-08-26 20:40:00,72.7,66.2,23.17,WNW,294,0.0,0.0,80,0.00,,,0.04,0,Wunderground v.1.15,2013-08-27 00:40:00,
2013-08-26 20:50:00,72.7,66.2,23.17,WNW,294,0.0,0.0,80,0.00,,,0.04,0,Wunderground v.1.15,2013-08-27 00:50:00,
2013-08-26 21:00:00,72.4,65.5,23.17,WNW,294,0.0,0.0,79,0.00,,,0.04,0,Wunderground v.1.15,2013-08-27 01:00:00,
2013-08-26 21:10:00,72.2,65.7,23.17,WNW,294,0.0,0.0,80,0.00,,,0.04,0,Wunderground v.1.15,2013-08-27 01:10:00,
2013-08-26 21:20:00,71.9,65.8,23.17,WNW,294,0.0,0.0,81,0.00,,,0.04,0,Wunderground v.1.15,2013-08-27 01:20:00,
2013-08-26 21:40:00,71.2,65.4,23.17,WNW,294,0.0,0.0,82,0.00,,,0.04,0,Wunderground v.1.15,2013-08-27 01:40:00,
2013-08-26 21:50:00,70.8,65.0,23.17,WNW,294,0.0,0.0,82,0.00,,,0.04,0,Wunderground v.1.15,2013-08-27 01:50:00,
2013-08-26 22:10:00,70.2,65.1,23.17,WNW,294,0.0,0.0,84,0.00,,,0.04,0,Wunderground v.1.15,2013-08-27 02:10:00,
2013-08-26 22:20:00,70.0,65.3,23.17,WNW,294,0.0,0.0,85,0.00,,,0.04,0,Wunderground v.1.15,2013-08-27 02:20:00,
2013-08-26 22:31:00,69.7,65.0,23.17,WNW,294,0.0,0.0,85,0.00,,,0.04,0,Wunderground v.1.15,2013-08-27 02:31:00,
2013-08-26 22:40:00,69.3,64.9,23.17,WNW,294,0.0,0.0,86,0.00,,,0.04,0,Wunderground v.1.15,2013-08-27 02:40:00,
2013-08-26 22:50:00,69.2,64.8,23.17,WNW,294,0.0,0.0,86,0.00,,,0.04,0,Wunderground v.1.15,2013-08-27 02:50:00,
2013-08-26 23:10:00,68.7,64.7,23.17,WNW,294,0.0,0.0,87,0.00,,,0.04,0,Wunderground v.1.15,2013-08-27 03:10:00,
2013-08-26 23:20:00,68.5,64.5,23.17,WNW,294,0.0,0.0,87,0.00,,,0.04,0,Wunderground v.1.15,2013-08-27 03:20:00,
2013-08-26 23:30:00,68.2,64.2,23.17,WNW,294,0.0,0.0,87,0.00,,,0.04,0,Wunderground v.1.15,2013-08-27 03:30:00,
2013-08-26 23:40:00,67.7,63.7,23.17,WNW,294,0.0,0.0,87,0.00,,,0.04,0,Wunderground v.1.15,2013-08-27 03:40:00,
2013-08-26 23:50:00,67.5,63.8,23.17,WNW,294,0.0,0.0,88,0.00,,,0.04,0,Wunderground v.1.15,2013-08-27 03:50:00,